createdAt,value
2019-01-26T00:00:26.713Z,97674.20
2019-01-26T00:02:56.240Z,97676.04
2019-01-26T00:05:25.702Z,97668.37
2019-01-26T00:07:55.167Z,97668.37
2019-01-26T00:10:24.758Z,97668.27
2019-01-26T00:12:54.213Z,97653.22
2019-01-26T00:15:23.749Z,97666.88
2019-01-26T00:17:53.243Z,97649.17
2019-01-26T00:20:22.984Z,97636.61
2019-01-26T00:22:52.483Z,97641.76
2019-01-26T00:25:22.419Z,97631.19
2019-01-26T00:27:51.930Z,97631.19
2019-01-26T00:30:21.566Z,97629.94
2019-01-26T00:32:51.111Z,97629.94
2019-01-26T00:35:20.607Z,97626.34
2019-01-26T00:37:50.078Z,97635.12
2019-01-26T00:40:19.826Z,97627.66
2019-01-26T00:42:49.361Z,97627.66
2019-01-26T00:45:18.817Z,97618.66
2019-01-26T00:47:48.344Z,97621.16
2019-01-26T00:50:17.918Z,97612.60
2019-01-26T00:52:47.411Z,97607.96
2019-01-26T00:55:17.225Z,97604.38
2019-01-26T00:57:46.701Z,97601.30
2019-01-26T01:00:17.444Z,97601.30
2019-01-26T01:02:47.082Z,97583.06
2019-01-26T01:05:17.295Z,97590.36
2019-01-26T01:07:47.024Z,97590.36
2019-01-26T01:10:17.056Z,97590.04
2019-01-26T01:12:46.635Z,97590.04
2019-01-26T01:15:16.541Z,97584.50
2019-01-26T01:17:46.066Z,97581.23
2019-01-26T01:20:16.020Z,97578.98
2019-01-26T01:22:45.515Z,97580.39
2019-01-26T01:25:15.519Z,97588.47
2019-01-26T01:27:45.163Z,97588.47
2019-01-26T01:30:17.318Z,97576.81
2019-01-26T01:32:46.806Z,97576.05
2019-01-26T01:35:16.410Z,97576.05
2019-01-26T01:37:45.879Z,97567.69
2019-01-26T01:40:15.710Z,97570.87
2019-01-26T01:42:45.216Z,97562.08
2019-01-26T01:45:17.440Z,97562.08
2019-01-26T01:47:46.923Z,97563.22
2019-01-26T01:50:17.007Z,97560.84
2019-01-26T01:52:46.469Z,97550.79
2019-01-26T01:55:16.176Z,97550.79
2019-01-26T01:57:45.845Z,97541.55
2019-01-26T02:00:18.046Z,97541.55
2019-01-26T02:02:47.636Z,97514.09
2019-01-26T02:05:17.516Z,97506.34
2019-01-26T02:07:47.124Z,97508.41
2019-01-26T02:10:19.026Z,97508.41
2019-01-26T02:12:48.824Z,97511.45
2019-01-26T02:15:18.485Z,97511.45
2019-01-26T02:17:47.979Z,97516.08
2019-01-26T02:20:19.986Z,97506.59
2019-01-26T02:22:49.527Z,97506.59
2019-01-26T02:25:19.503Z,97510.69
2019-01-26T02:27:48.937Z,97505.48
2019-01-26T02:30:23.604Z,97500.42
2019-01-26T02:32:54.604Z,97500.42
2019-01-26T02:35:24.310Z,97482.80
2019-01-26T02:37:53.795Z,97486.03
2019-01-26T02:40:23.557Z,97482.85
2019-01-26T02:42:53.045Z,97475.00
2019-01-26T02:45:22.552Z,97472.83
2019-01-26T02:47:52.047Z,97469.67
2019-01-26T02:50:21.535Z,97469.67
2019-01-26T02:52:51.002Z,97463.55
2019-01-26T02:55:20.458Z,97466.70
2019-01-26T02:57:49.958Z,97466.70
2019-01-26T03:00:23.986Z,97462.28
2019-01-26T03:02:53.639Z,97462.28
2019-01-26T03:05:23.135Z,97461.50
2019-01-26T03:07:52.585Z,97454.70
2019-01-26T03:10:24.372Z,97454.34
2019-01-26T03:12:53.831Z,97454.34
2019-01-26T03:15:24.705Z,97436.95
2019-01-26T03:17:54.673Z,97436.95
2019-01-26T03:20:24.327Z,97433.92
2019-01-26T03:22:54.169Z,97435.42
2019-01-26T03:25:23.651Z,97436.33
2019-01-26T03:27:53.110Z,97436.33
2019-01-26T03:30:24.985Z,97421.73
2019-01-26T03:32:54.456Z,97421.73
2019-01-26T03:35:23.970Z,97419.36
2019-01-26T03:37:53.627Z,97410.42
2019-01-26T03:40:24.115Z,97407.67
2019-01-26T03:42:53.558Z,97413.99
2019-01-26T03:45:23.077Z,97413.17
2019-01-26T03:47:52.551Z,97397.70
2019-01-26T03:50:22.008Z,97397.70
2019-01-26T03:52:51.493Z,97410.63
2019-01-26T03:55:21.778Z,97406.19
2019-01-26T03:57:51.702Z,97401.70
2019-01-26T04:00:23.584Z,97395.78
2019-01-26T04:02:53.171Z,97401.43
2019-01-26T04:05:22.886Z,97392.11
2019-01-26T04:07:52.445Z,97386.84
2019-01-26T04:10:22.145Z,97384.80
2019-01-26T04:12:51.926Z,97377.17
2019-01-26T04:15:21.690Z,97376.63
2019-01-26T04:17:51.174Z,97381.48
2019-01-26T04:20:22.390Z,97376.89
2019-01-26T04:22:52.041Z,97367.95
2019-01-26T04:25:21.722Z,97366.61
2019-01-26T04:27:51.219Z,97365.06
2019-01-26T04:30:22.788Z,97360.28
2019-01-26T04:32:52.769Z,97358.87
2019-01-26T04:35:22.245Z,97362.17
2019-01-26T04:37:51.787Z,97361.35
2019-01-26T04:40:21.630Z,97354.27
2019-01-26T04:42:51.118Z,97357.81
2019-01-26T04:45:22.619Z,97359.64
2019-01-26T04:47:52.123Z,97344.74
2019-01-26T04:50:22.093Z,97343.23
2019-01-26T04:52:51.565Z,97344.62
2019-01-26T04:55:22.067Z,97345.33
2019-01-26T04:57:51.781Z,97345.33
2019-01-26T05:00:23.927Z,97348.32
2019-01-26T05:02:53.398Z,97347.64
2019-01-26T05:05:23.234Z,97343.32
2019-01-26T05:07:52.800Z,97346.50
2019-01-26T05:10:22.463Z,97347.89
2019-01-26T05:12:52.062Z,97345.49
2019-01-26T05:15:22.148Z,97335.94
2019-01-26T05:17:51.700Z,97343.79
2019-01-26T05:20:25.707Z,97336.54
2019-01-26T05:22:55.178Z,97335.69
2019-01-26T05:25:24.746Z,97343.61
2019-01-26T05:27:54.254Z,97338.78
2019-01-26T05:30:28.884Z,97342.36
2019-01-26T05:32:58.687Z,97337.17
2019-01-26T05:35:28.245Z,97338.37
2019-01-26T05:37:57.715Z,97330.27
2019-01-26T05:40:27.241Z,97332.41
2019-01-26T05:42:56.767Z,97331.00
2019-01-26T05:45:26.494Z,97330.72
2019-01-26T05:47:55.990Z,97333.73
2019-01-26T05:50:26.835Z,97350.30
2019-01-26T05:52:56.699Z,97342.70
2019-01-26T05:55:26.162Z,97342.20
2019-01-26T05:57:55.709Z,97330.33
2019-01-26T06:00:35.043Z,97326.21
2019-01-26T06:03:04.826Z,97334.17
2019-01-26T06:05:34.450Z,97321.55
2019-01-26T06:08:04.900Z,97324.43
2019-01-26T06:10:34.401Z,97318.44
2019-01-26T06:13:03.912Z,97323.56
2019-01-26T06:15:33.488Z,97324.59
2019-01-26T06:18:03.102Z,97325.83
2019-01-26T06:20:32.569Z,97330.88
2019-01-26T06:23:02.023Z,97330.19
2019-01-26T06:25:31.507Z,97319.48
2019-01-26T06:28:00.995Z,97328.22
2019-01-26T06:30:30.566Z,97325.87
2019-01-26T06:33:00.129Z,97325.14
2019-01-26T06:35:29.703Z,97318.86
2019-01-26T06:37:59.190Z,97314.28
2019-01-26T06:40:28.673Z,97319.33
2019-01-26T06:42:58.150Z,97318.75
2019-01-26T06:45:27.670Z,97315.93
2019-01-26T06:48:02.054Z,97318.86
2019-01-26T06:50:29.391Z,97322.09
2019-01-26T06:52:58.935Z,97319.80
2019-01-26T06:55:28.375Z,97318.44
2019-01-26T06:57:57.897Z,97313.59
2019-01-26T07:00:32.024Z,97308.92
2019-01-26T07:03:01.750Z,97316.61
2019-01-26T07:05:59.104Z,97322.41
2019-01-26T07:08:28.591Z,97318.86
2019-01-26T07:10:58.060Z,97323.60
2019-01-26T07:13:27.863Z,97333.31
2019-01-26T07:15:59.642Z,97335.97
2019-01-26T07:18:29.260Z,97329.66
2019-01-26T07:20:58.789Z,97324.59
2019-01-26T07:23:28.583Z,97326.98
2019-01-26T07:25:58.403Z,97336.06
2019-01-26T07:28:27.865Z,97335.09
2019-01-26T07:30:57.467Z,97337.17
2019-01-26T07:33:26.935Z,97329.77
2019-01-26T07:35:56.442Z,97337.20
2019-01-26T07:38:25.972Z,97335.13
2019-01-26T07:40:55.575Z,97331.41
2019-01-26T07:43:25.022Z,97332.91
2019-01-26T07:45:54.499Z,97316.20
2019-01-26T07:48:23.998Z,97316.20
2019-01-26T07:50:53.621Z,97319.14
2019-01-26T07:53:23.128Z,97320.20
2019-01-26T07:55:52.595Z,97326.57
2019-01-26T07:58:22.262Z,97330.48
2019-01-26T08:00:51.739Z,97323.56
2019-01-26T08:03:21.222Z,97322.27
2019-01-26T08:05:50.733Z,97317.23
2019-01-26T08:08:20.193Z,97326.75
2019-01-26T08:10:49.740Z,97324.53
2019-01-26T08:13:19.764Z,97323.22
2019-01-26T08:15:49.586Z,97320.98
2019-01-26T08:18:23.979Z,97315.77
2019-01-26T08:20:50.287Z,97314.52
2019-01-26T08:23:19.849Z,97321.94
2019-01-26T08:25:49.334Z,97322.55
2019-01-26T08:28:18.857Z,97320.45
2019-01-26T08:30:48.334Z,97312.73
2019-01-26T08:33:17.954Z,97322.92
2019-01-26T08:35:47.466Z,97321.36
2019-01-26T08:38:16.981Z,97311.45
2019-01-26T08:40:46.461Z,97321.29
2019-01-26T08:43:16.046Z,97324.02
2019-01-26T08:45:45.626Z,97316.83
2019-01-26T08:48:15.129Z,97317.16
2019-01-26T08:50:44.609Z,97323.22
2019-01-26T08:53:14.127Z,97318.72
2019-01-26T08:55:43.584Z,97315.63
2019-01-26T08:58:13.139Z,97311.88
2019-01-26T09:00:42.671Z,97308.70
2019-01-26T09:03:29.723Z,97308.42
2019-01-26T09:06:05.249Z,97304.69
2019-01-26T09:08:34.975Z,97306.21
2019-01-26T09:11:04.794Z,97302.58
2019-01-26T09:13:34.156Z,97308.17
2019-01-26T09:16:03.746Z,97302.34
2019-01-26T09:18:38.706Z,97303.92
2019-01-26T09:21:04.630Z,97300.19
2019-01-26T09:23:34.100Z,97302.30
2019-01-26T09:26:03.705Z,97304.14
2019-01-26T09:28:33.189Z,97308.43
2019-01-26T09:31:02.645Z,97300.99
2019-01-26T09:33:32.207Z,97308.43
2019-01-26T09:36:01.710Z,97300.44
2019-01-26T09:38:31.249Z,97306.84
2019-01-26T09:41:00.823Z,97301.52
2019-01-26T09:43:30.317Z,97310.60
2019-01-26T09:45:59.895Z,97299.69
2019-01-26T09:48:29.437Z,97303.68
2019-01-26T09:50:58.924Z,97304.20
2019-01-26T09:53:28.390Z,97297.57
2019-01-26T09:55:57.966Z,97301.28
2019-01-26T09:58:27.439Z,97291.70
2019-01-26T10:00:56.874Z,97299.98
2019-01-26T10:03:26.353Z,97295.96
2019-01-26T10:05:55.790Z,97299.44
2019-01-26T10:08:25.277Z,97299.17
2019-01-26T10:10:55.377Z,97301.56
2019-01-26T10:13:25.092Z,97302.91
2019-01-26T10:15:54.563Z,97306.36
2019-01-26T10:18:24.177Z,97296.52
2019-01-26T10:20:53.647Z,97294.92
2019-01-26T10:23:23.258Z,97288.00
2019-01-26T10:25:52.716Z,97282.65
2019-01-26T10:28:22.365Z,97273.32
2019-01-26T10:31:02.799Z,97277.86
2019-01-26T10:33:32.225Z,97276.25
2019-01-26T10:36:21.065Z,97275.73
2019-01-26T10:39:00.584Z,97274.13
2019-01-26T10:41:52.046Z,97262.38
2019-01-26T10:44:25.426Z,97257.59
2019-01-26T10:46:54.888Z,97256.28
2019-01-26T10:49:24.260Z,97250.94
2019-01-26T10:51:53.691Z,97241.87
2019-01-26T10:54:23.174Z,97240.80
2019-01-26T10:56:52.586Z,97248.54
2019-01-26T10:59:22.045Z,97246.66
2019-01-26T11:01:51.459Z,97245.03
2019-01-26T11:04:21.032Z,97247.70
2019-01-26T11:06:50.582Z,97251.66
2019-01-26T11:09:20.028Z,97250.59
2019-01-26T11:11:49.393Z,97243.89
2019-01-26T11:14:18.794Z,97239.38
2019-01-26T11:16:48.239Z,97232.16
2019-01-26T11:19:17.655Z,97237.28
2019-01-26T11:21:47.049Z,97235.36
2019-01-26T11:24:16.483Z,97231.03
2019-01-26T11:26:49.388Z,97228.08
2019-01-26T11:29:17.053Z,97228.67
2019-01-26T11:31:46.548Z,97231.30
2019-01-26T11:34:15.929Z,97229.16
2019-01-26T11:36:45.558Z,97231.30
2019-01-26T11:39:15.019Z,97229.47
2019-01-26T11:41:44.497Z,97224.16
2019-01-26T11:44:13.884Z,97233.13
2019-01-26T11:47:00.295Z,97228.91
2019-01-26T11:49:29.758Z,97227.49
2019-01-26T11:52:09.736Z,97227.56
2019-01-26T11:54:57.731Z,97225.89
2019-01-26T11:57:29.829Z,97225.59
2019-01-26T12:00:30.181Z,97211.54
2019-01-26T12:03:18.657Z,97208.57
2019-01-26T12:06:01.096Z,97203.67
2019-01-26T12:08:30.633Z,97211.23
2019-01-26T12:11:00.027Z,97200.53
2019-01-26T12:13:29.447Z,97197.23
2019-01-26T12:15:58.833Z,97197.00
2019-01-26T12:18:28.248Z,97192.95
2019-01-26T12:20:57.659Z,97197.70
2019-01-26T12:23:27.050Z,97199.70
2019-01-26T12:25:56.568Z,97194.31
2019-01-26T12:28:25.930Z,97200.56
2019-01-26T12:30:55.370Z,97198.89
2019-01-26T12:33:24.985Z,97190.89
2019-01-26T12:35:54.536Z,97194.83
2019-01-26T12:38:23.930Z,97190.70
2019-01-26T12:40:53.491Z,97193.54
2019-01-26T12:43:22.983Z,97187.03
2019-01-26T12:45:52.414Z,97187.44
2019-01-26T12:48:22.145Z,97189.23
2019-01-26T12:50:51.588Z,97187.21
2019-01-26T12:53:20.991Z,97180.84
2019-01-26T12:55:50.488Z,97179.22
2019-01-26T12:58:19.920Z,97184.14
2019-01-26T13:00:49.314Z,97174.45
2019-01-26T13:03:18.812Z,97173.19
2019-01-26T13:05:48.426Z,97177.83
2019-01-26T13:08:18.143Z,97165.52
2019-01-26T13:10:50.542Z,97169.67
2019-01-26T13:13:19.934Z,97167.75
2019-01-26T13:15:49.460Z,97156.86
2019-01-26T13:18:19.073Z,97166.64
2019-01-26T13:20:48.503Z,97170.16
2019-01-26T13:23:17.927Z,97160.41
2019-01-26T13:25:47.450Z,97160.98
2019-01-26T13:28:16.882Z,97157.91
2019-01-26T13:30:46.312Z,97169.62
2019-01-26T13:33:15.957Z,97167.72
2019-01-26T13:35:45.357Z,97168.45
2019-01-26T13:38:14.845Z,97155.84
2019-01-26T13:40:44.790Z,97158.16
2019-01-26T13:43:14.934Z,97159.97
2019-01-26T13:45:44.372Z,97163.09
2019-01-26T13:48:13.836Z,97153.29
2019-01-26T13:50:43.234Z,97157.63
2019-01-26T13:53:12.757Z,97159.70
2019-01-26T13:55:42.147Z,97156.16
2019-01-26T13:58:11.563Z,97156.38
2019-01-26T14:00:41.226Z,97158.28
2019-01-26T14:03:11.178Z,97155.23
2019-01-26T14:05:40.575Z,97154.19
2019-01-26T14:08:10.070Z,97159.14
2019-01-26T14:10:39.617Z,97161.04
2019-01-26T14:13:09.105Z,97163.77
2019-01-26T14:15:38.624Z,97153.10
2019-01-26T14:18:08.031Z,97156.31
2019-01-26T14:20:37.697Z,97159.45
2019-01-26T14:23:07.101Z,97151.98
2019-01-26T14:25:36.476Z,97147.03
2019-01-26T14:28:06.313Z,97157.43
2019-01-26T14:30:38.580Z,97146.84
2019-01-26T14:33:08.230Z,97147.77
2019-01-26T14:35:37.661Z,97146.10
2019-01-26T14:38:07.777Z,97145.66
2019-01-26T14:40:37.254Z,97141.27
2019-01-26T14:43:06.968Z,97146.67
2019-01-26T14:45:36.433Z,97144.42
2019-01-26T14:48:05.926Z,97149.82
2019-01-26T14:50:35.544Z,97145.76
2019-01-26T14:53:05.170Z,97148.33
2019-01-26T14:55:34.639Z,97153.90
2019-01-26T14:58:04.230Z,97146.55
2019-01-26T15:00:34.615Z,97144.28
2019-01-26T15:03:04.283Z,97145.91
2019-01-26T15:05:34.188Z,97147.72
2019-01-26T15:08:03.995Z,97146.61
2019-01-26T15:10:33.542Z,97144.80
2019-01-26T15:13:03.078Z,97148.36
2019-01-26T15:15:32.557Z,97149.05
2019-01-26T15:18:02.309Z,97142.55
2019-01-26T15:20:34.351Z,97141.87
2019-01-26T15:23:04.424Z,97142.52
2019-01-26T15:25:33.797Z,97145.81
2019-01-26T15:28:03.471Z,97139.73
2019-01-26T15:30:37.180Z,97141.89
2019-01-26T15:33:07.981Z,97132.21
2019-01-26T15:35:37.424Z,97130.14
2019-01-26T15:38:08.229Z,97131.70
2019-01-26T15:40:38.060Z,97129.42
2019-01-26T15:43:07.440Z,97129.42
2019-01-26T15:45:44.962Z,97133.91
2019-01-26T15:48:14.360Z,97122.52
2019-01-26T15:50:44.068Z,97121.81
2019-01-26T15:53:13.931Z,97117.84
2019-01-26T15:55:43.544Z,97115.96
2019-01-26T15:58:12.978Z,97118.44
2019-01-26T16:00:44.859Z,97122.41
2019-01-26T16:03:14.905Z,97118.95
2019-01-26T16:05:44.303Z,97116.72
2019-01-26T16:08:13.806Z,97121.61
2019-01-26T16:10:43.200Z,97116.50
2019-01-26T16:13:12.582Z,97122.78
2019-01-26T16:15:42.000Z,97121.75
2019-01-26T16:18:13.738Z,97120.19
2019-01-26T16:20:43.362Z,97109.02
2019-01-26T16:23:12.752Z,97112.98
2019-01-26T16:25:42.161Z,97114.03
2019-01-26T16:28:11.563Z,97111.59
2019-01-26T16:30:40.967Z,97104.23
2019-01-26T16:33:10.400Z,97102.66
2019-01-26T16:35:39.762Z,97100.27
2019-01-26T16:38:09.240Z,97108.48
2019-01-26T16:40:38.636Z,97106.15
2019-01-26T16:43:08.126Z,97098.91
2019-01-26T16:45:39.427Z,97097.91
2019-01-26T16:48:11.856Z,97104.33
2019-01-26T16:50:41.245Z,97105.94
2019-01-26T16:53:10.820Z,97105.40
2019-01-26T16:55:40.274Z,97104.06
2019-01-26T16:58:09.934Z,97100.32
2019-01-26T17:00:41.712Z,97100.55
2019-01-26T17:03:11.209Z,97094.95
2019-01-26T17:05:40.707Z,97089.59
2019-01-26T17:08:11.157Z,97089.06
2019-01-26T17:10:42.268Z,97086.11
2019-01-26T17:13:12.308Z,97088.78
2019-01-26T17:15:41.929Z,97080.21
2019-01-26T17:18:13.802Z,97093.09
2019-01-26T17:20:43.587Z,97084.55
2019-01-26T17:23:13.062Z,97083.49
2019-01-26T17:25:42.459Z,97085.91
2019-01-26T17:28:11.831Z,97076.48
2019-01-26T17:30:42.559Z,97074.98
2019-01-26T17:33:11.921Z,97077.92
2019-01-26T17:35:41.432Z,97073.38
2019-01-26T17:38:10.986Z,97075.25
2019-01-26T17:40:40.413Z,97074.97
2019-01-26T17:43:10.369Z,97072.44
2019-01-26T17:45:39.778Z,97071.97
2019-01-26T17:48:09.779Z,97067.77
2019-01-26T17:50:42.266Z,97074.95
2019-01-26T17:53:10.321Z,97076.83
2019-01-26T17:55:39.788Z,97067.52
2019-01-26T17:58:09.202Z,97067.48
2019-01-26T18:00:49.245Z,97064.81
2019-01-26T18:03:18.818Z,97058.80
2019-01-26T18:05:48.386Z,97058.91
2019-01-26T18:08:17.801Z,97055.76
2019-01-26T18:10:47.397Z,97054.45
2019-01-26T18:13:16.860Z,97054.22
2019-01-26T18:15:46.246Z,97045.63
2019-01-26T18:18:16.242Z,97048.30
2019-01-26T18:20:49.368Z,97049.09
2019-01-26T18:23:21.146Z,97039.25
2019-01-26T18:25:50.576Z,97033.00
2019-01-26T18:28:19.986Z,97034.70
2019-01-26T18:30:49.411Z,97028.52
2019-01-26T18:33:19.226Z,97028.08
2019-01-26T18:35:48.625Z,97023.97
2019-01-26T18:38:18.212Z,97025.84
2019-01-26T18:40:47.627Z,97019.63
2019-01-26T18:43:17.027Z,97018.61
2019-01-26T18:45:46.426Z,97017.78
2019-01-26T18:48:16.051Z,97007.42
2019-01-26T18:50:47.925Z,97009.72
2019-01-26T18:53:17.485Z,97019.18
2019-01-26T18:55:46.913Z,97006.34
2019-01-26T18:58:17.041Z,97006.57
2019-01-26T19:00:49.424Z,97000.19
2019-01-26T19:03:32.347Z,97001.04
2019-01-26T19:06:01.761Z,96993.04
2019-01-26T19:08:31.192Z,96992.44
2019-01-26T19:11:00.674Z,96991.16
2019-01-26T19:13:30.122Z,96987.39
2019-01-26T19:15:59.752Z,96979.47
2019-01-26T19:18:31.253Z,96976.29
2019-01-26T19:21:03.372Z,96979.07
2019-01-26T19:23:31.808Z,96976.03
2019-01-26T19:26:01.299Z,96964.03
2019-01-26T19:28:30.867Z,96960.85
2019-01-26T19:31:00.336Z,96960.64
2019-01-26T19:33:29.834Z,96952.77
2019-01-26T19:35:59.438Z,96956.91
2019-01-26T19:38:28.896Z,96957.14
2019-01-26T19:40:58.489Z,96949.59
2019-01-26T19:43:27.946Z,96948.00
2019-01-26T19:45:57.375Z,96947.33
2019-01-26T19:48:26.835Z,96940.12
2019-01-26T19:50:56.483Z,96943.07
2019-01-26T19:53:25.969Z,96934.31
2019-01-26T19:55:55.345Z,96935.81
2019-01-26T19:58:25.000Z,96935.30
2019-01-26T20:00:54.412Z,96936.03
2019-01-26T20:03:23.922Z,96926.05
2019-01-26T20:05:53.316Z,96926.70
2019-01-26T20:08:23.486Z,96932.60
2019-01-26T20:10:52.921Z,96923.84
2019-01-26T20:13:22.365Z,96923.71
2019-01-26T20:15:51.865Z,96930.09
2019-01-26T20:18:21.352Z,96920.34
2019-01-26T20:20:50.773Z,96915.92
2019-01-26T20:23:20.203Z,96911.88
2019-01-26T20:25:49.635Z,96908.96
2019-01-26T20:28:19.059Z,96906.80
2019-01-26T20:30:48.698Z,96901.20
2019-01-26T20:33:18.275Z,96903.44
2019-01-26T20:35:47.734Z,96895.89
2019-01-26T20:38:17.338Z,96890.59
2019-01-26T20:40:46.833Z,96889.13
2019-01-26T20:43:16.240Z,96885.70
2019-01-26T20:45:45.844Z,96879.22
2019-01-26T20:48:15.602Z,96877.59
2019-01-26T20:50:45.082Z,96872.95
2019-01-26T20:53:14.497Z,96874.61
2019-01-26T20:55:44.031Z,96863.46
2019-01-26T20:58:13.371Z,96857.31
2019-01-26T21:00:42.806Z,96856.77
2019-01-26T21:03:12.379Z,96857.41
2019-01-26T21:05:41.799Z,96859.94
2019-01-26T21:08:11.337Z,96850.75
2019-01-26T21:10:40.749Z,96849.41
2019-01-26T21:13:16.216Z,96839.52
2019-01-26T21:15:41.725Z,96838.92
2019-01-26T21:18:11.126Z,96835.81
2019-01-26T21:20:40.490Z,96831.55
2019-01-26T21:23:09.961Z,96825.03
2019-01-26T21:25:39.392Z,96824.73
2019-01-26T21:28:08.843Z,96826.64
2019-01-26T21:30:38.241Z,96824.82
2019-01-26T21:33:07.707Z,96813.81
2019-01-26T21:35:37.063Z,96816.11
2019-01-26T21:38:06.467Z,96811.27
2019-01-26T21:40:35.866Z,96814.19
2019-01-26T21:43:05.246Z,96807.60
2019-01-26T21:45:35.028Z,96800.66
2019-01-26T21:48:04.616Z,96803.06
2019-01-26T21:50:34.125Z,96800.44
2019-01-26T21:53:03.704Z,96790.40
2019-01-26T21:55:33.328Z,96778.45
2019-01-26T21:58:02.837Z,96779.00
2019-01-26T22:00:33.818Z,96774.15
2019-01-26T22:03:03.723Z,96775.31
2019-01-26T22:05:33.140Z,96777.57
2019-01-26T22:08:02.547Z,96774.61
2019-01-26T22:10:31.941Z,96767.19
2019-01-26T22:13:01.368Z,96753.81
2019-01-26T22:15:30.860Z,96759.61
2019-01-26T22:18:00.334Z,96749.88
2019-01-26T22:20:30.013Z,96742.84
2019-01-26T22:22:59.624Z,96746.48
2019-01-26T22:25:29.044Z,96735.02
2019-01-26T22:27:58.809Z,96731.52
2019-01-26T22:30:33.476Z,96718.15
2019-01-26T22:33:02.977Z,96717.50
2019-01-26T22:35:32.499Z,96717.71
2019-01-26T22:38:01.926Z,96715.14
2019-01-26T22:40:36.299Z,96716.47
2019-01-26T22:43:06.337Z,96710.70
2019-01-26T22:45:35.960Z,96710.25
2019-01-26T22:48:05.566Z,96707.28
2019-01-26T22:50:35.183Z,96704.52
2019-01-26T22:53:05.269Z,96702.73
2019-01-26T22:55:34.796Z,96704.97
2019-01-26T22:58:04.322Z,96697.05
2019-01-26T23:01:04.695Z,96690.13
2019-01-26T23:04:13.952Z,96682.73
2019-01-26T23:07:33.711Z,96676.21
2019-01-26T23:10:52.499Z,96671.91
2019-01-26T23:14:01.999Z,96660.16
2019-01-26T23:17:10.986Z,96661.40
2019-01-26T23:20:10.223Z,96652.64
2019-01-26T23:23:31.472Z,96647.90
2019-01-26T23:26:13.804Z,96635.70
2019-01-26T23:29:28.379Z,96630.22
2019-01-26T23:31:57.822Z,96617.42
2019-01-26T23:34:27.325Z,96614.45
2019-01-26T23:36:56.747Z,96611.55
2019-01-26T23:39:26.174Z,96608.34
2019-01-26T23:41:55.622Z,96600.94
2019-01-26T23:44:25.052Z,96590.14
2019-01-26T23:46:54.447Z,96591.59
2019-01-26T23:49:23.893Z,96593.59
2019-01-26T23:51:53.428Z,96589.34
2019-01-26T23:54:23.122Z,96584.30
2019-01-26T23:56:52.539Z,96573.09
2019-01-26T23:59:22.146Z,96567.44
